Time;durP1;ratioP1;P1;durP2;ratioP2;P2;SDS_P1;SDS_P2;PMS_P1;PMS_P2;Temp;Humidity;BMP_temperature;BMP_pressure;BME280_temperature;BME280_humidity;BME280_pressure;Samples;Min_cycle;Max_cycle;Signal;HPM_P1;HPM_P2
2021/03/16 00:02:17;;;;;;;11.63;2.28;;;7.60;79.40;;;;;;5074790;28;20029;-73
2021/03/16 00:04:43;;;;;;;9.00;1.90;;;7.60;79.50;;;;;;5075902;28;20024;-74
2021/03/16 00:07:08;;;;;;;9.23;2.05;;;7.60;79.60;;;;;;5074497;28;20443;-73
2021/03/16 00:09:34;;;;;;;12.73;1.80;;;7.60;79.50;;;;;;5074375;28;20043;-73
2021/03/16 00:12:00;;;;;;;14.05;2.20;;;7.60;79.50;;;;;;5076452;28;20029;-73
2021/03/16 00:14:26;;;;;;;14.20;2.30;;;7.60;79.50;;;;;;5075569;28;20096;-73
2021/03/16 00:16:52;;;;;;;10.50;1.73;;;7.60;79.50;;;;;;5074235;28;20123;-73
2021/03/16 00:19:19;;;;;;;13.38;2.35;;;7.60;79.50;;;;;;5074179;28;20048;-73
2021/03/16 00:21:45;;;;;;;14.00;2.20;;;7.60;79.50;;;;;;5075472;28;20017;-73
2021/03/16 00:24:11;;;;;;;10.93;1.85;;;7.60;79.40;;;;;;5075388;28;20029;-75
2021/03/16 00:26:37;;;;;;;10.35;2.28;;;7.50;79.40;;;;;;5073990;28;20040;-73
2021/03/16 00:29:03;;;;;;;8.70;2.13;;;7.50;79.50;;;;;;5073831;28;20024;-74
2021/03/16 00:31:29;;;;;;;7.05;1.55;;;7.50;79.70;;;;;;5075141;28;20032;-73
2021/03/16 00:33:54;;;;;;;11.32;2.30;;;7.50;79.80;;;;;;5073276;28;20021;-74
2021/03/16 00:36:20;;;;;;;10.73;2.30;;;7.50;79.70;;;;;;5075152;28;20109;-74
2021/03/16 00:38:46;;;;;;;12.35;2.08;;;7.50;79.70;;;;;;5074962;28;20035;-74
2021/03/16 00:41:12;;;;;;;9.63;2.13;;;7.50;79.60;;;;;;5074271;28;20028;-74
2021/03/16 00:43:37;;;;;;;11.52;2.00;;;7.50;79.60;;;;;;5074053;28;20025;-73
2021/03/16 00:46:03;;;;;;;11.55;1.70;;;7.50;79.60;;;;;;5075163;28;20058;-74
2021/03/16 00:48:29;;;;;;;9.77;1.65;;;7.50;79.70;;;;;;5074786;28;20095;-74
2021/03/16 00:50:55;;;;;;;10.65;2.17;;;7.60;79.70;;;;;;5074826;28;20035;-74
2021/03/16 00:53:21;;;;;;;10.50;1.92;;;7.60;79.70;;;;;;5074954;28;20569;-74
2021/03/16 00:55:47;;;;;;;10.95;2.13;;;7.60;79.70;;;;;;5073590;28;20103;-74
2021/03/16 00:58:13;;;;;;;8.25;1.65;;;7.50;79.60;;;;;;5074804;28;20040;-74
2021/03/16 01:00:38;;;;;;;10.70;2.30;;;7.50;79.60;;;;;;5073569;28;20024;-74
2021/03/16 01:03:04;;;;;;;16.30;2.20;;;7.50;79.60;;;;;;5073331;28;20495;-73
2021/03/16 01:05:30;;;;;;;11.18;1.70;;;7.40;79.60;;;;;;5073520;28;20068;-73
2021/03/16 01:07:56;;;;;;;11.43;1.90;;;7.40;79.60;;;;;;5074673;28;20499;-73
2021/03/16 01:10:23;;;;;;;15.88;2.45;;;7.30;79.40;;;;;;5074662;28;20163;-73
2021/03/16 01:12:49;;;;;;;10.80;2.00;;;7.30;79.30;;;;;;5074712;28;20024;-73
2021/03/16 01:15:15;;;;;;;10.65;1.77;;;7.30;79.40;;;;;;5073263;28;20023;-73
2021/03/16 01:17:41;;;;;;;7.32;1.65;;;7.20;79.30;;;;;;5074339;28;20028;-73
2021/03/16 01:20:13;;;;;;;8.10;1.90;;;7.30;79.30;;;;;;5073058;28;20054;-74
2021/03/16 01:22:39;;;;;;;9.63;1.98;;;7.30;79.20;;;;;;5074470;28;20028;-74
2021/03/16 01:25:05;;;;;;;14.80;2.00;;;7.30;79.00;;;;;;5073288;28;20025;-73
2021/03/16 01:27:30;;;;;;;14.70;1.95;;;7.40;78.90;;;;;;5073246;28;20058;-74
2021/03/16 01:29:56;;;;;;;11.52;2.17;;;7.40;78.80;;;;;;5072891;28;20132;-73
2021/03/16 01:32:22;;;;;;;12.55;2.17;;;7.40;78.30;;;;;;5073975;28;20376;-72
2021/03/16 01:34:47;;;;;;;10.27;1.95;;;7.40;78.30;;;;;;5074320;28;20021;-73
2021/03/16 01:37:13;;;;;;;9.82;2.00;;;7.40;78.30;;;;;;5072843;28;20030;-74
2021/03/16 01:39:39;;;;;;;11.60;2.00;;;7.40;78.20;;;;;;5074180;28;20429;-73
2021/03/16 01:42:04;;;;;;;9.18;1.73;;;7.40;78.20;;;;;;5072548;28;20024;-73
2021/03/16 01:44:30;;;;;;;11.68;1.80;;;7.40;78.20;;;;;;5073712;28;20029;-73
2021/03/16 01:46:56;;;;;;;10.60;1.70;;;7.50;78.30;;;;;;5071560;28;20115;-74
2021/03/16 01:49:21;;;;;;;7.15;1.67;;;7.50;78.20;;;;;;5074372;28;20029;-74
2021/03/16 01:51:47;;;;;;;6.30;1.30;;;7.50;78.10;;;;;;5072464;28;20480;-74
2021/03/16 01:54:13;;;;;;;17.20;2.10;;;7.50;78.20;;;;;;5073713;28;20381;-74
2021/03/16 01:56:41;;;;;;;8.38;1.88;;;7.50;78.20;;;;;;5074105;28;20024;-74
2021/03/16 01:59:07;;;;;;;9.23;1.70;;;7.50;78.00;;;;;;5072392;28;20444;-74
2021/03/16 02:01:33;;;;;;;9.15;1.70;;;7.50;78.00;;;;;;5072505;28;20426;-75
2021/03/16 02:03:58;;;;;;;9.65;1.85;;;7.50;78.10;;;;;;5072064;28;20025;-75
2021/03/16 02:06:52;;;;;;;6.43;1.30;;;7.50;77.90;;;;;;5072014;28;20032;-74
2021/03/16 02:09:40;;;;;;;5.82;1.42;;;7.50;77.90;;;;;;5072081;28;20119;-74
2021/03/16 02:12:19;;;;;;;6.28;1.55;;;7.40;77.90;;;;;;5072052;28;20491;-75
2021/03/16 02:14:57;;;;;;;7.95;1.83;;;7.40;78.10;;;;;;5073310;28;20025;-75
2021/03/16 02:17:28;;;;;;;8.23;1.90;;;7.40;78.20;;;;;;5073267;28;20019;-74
2021/03/16 02:20:03;;;;;;;11.40;1.63;;;7.40;78.10;;;;;;5073170;28;20041;-74
2021/03/16 02:22:31;;;;;;;10.75;1.40;;;7.40;78.00;;;;;;5072893;28;20059;-74
2021/03/16 02:25:30;;;;;;;11.13;1.80;;;7.40;77.90;;;;;;5073019;28;20021;-75
2021/03/16 02:28:29;;;;;;;12.35;1.73;;;7.40;77.90;;;;;;5073073;28;20013;-75
2021/03/16 02:30:57;;;;;;;8.40;2.33;;;7.40;77.70;;;;;;5071669;28;20533;-74
2021/03/16 02:33:25;;;;;;;8.25;1.55;;;7.40;77.60;;;;;;5073336;28;20020;-74
2021/03/16 02:35:52;;;;;;;8.90;2.00;;;7.40;77.30;;;;;;5073118;28;20024;-74
2021/03/16 02:38:23;;;;;;;6.68;1.75;;;7.40;77.20;;;;;;5071783;28;20074;-74
2021/03/16 02:40:51;;;;;;;10.05;1.85;;;7.40;77.20;;;;;;5071652;28;20032;-75
2021/03/16 02:43:18;;;;;;;9.43;1.88;;;7.40;77.40;;;;;;5073101;28;20025;-75
2021/03/16 02:45:45;;;;;;;9.52;1.77;;;7.40;77.40;;;;;;5072804;28;20162;-75
2021/03/16 02:48:12;;;;;;;6.85;1.73;;;7.40;77.40;;;;;;5072860;28;20025;-75
2021/03/16 02:50:39;;;;;;;7.28;1.70;;;7.40;77.40;;;;;;5071347;28;20028;-74
2021/03/16 02:53:05;;;;;;;10.00;1.50;;;7.30;77.40;;;;;;5072790;28;20028;-74
2021/03/16 02:55:31;;;;;;;5.05;1.42;;;7.40;77.40;;;;;;5071269;28;20028;-75
2021/03/16 02:57:59;;;;;;;12.15;1.38;;;7.40;77.40;;;;;;5071384;28;20031;-74
2021/03/16 03:00:26;;;;;;;4.75;1.30;;;7.40;77.40;;;;;;5072543;28;20078;-75
2021/03/16 03:02:53;;;;;;;6.32;1.40;;;7.50;77.50;;;;;;5071403;28;20547;-75
2021/03/16 03:05:20;;;;;;;4.20;0.90;;;7.50;77.40;;;;;;5072931;28;20025;-75
2021/03/16 03:07:47;;;;;;;10.10;1.38;;;7.50;77.30;;;;;;5071332;28;20388;-74
2021/03/16 03:10:13;;;;;;;4.15;1.13;;;7.50;77.20;;;;;;5072539;28;20421;-74
2021/03/16 03:12:38;;;;;;;7.65;1.67;;;7.50;77.30;;;;;;5072656;28;20020;-75
2021/03/16 03:15:08;;;;;;;9.02;1.50;;;7.50;77.40;;;;;;5072635;28;20043;-74
2021/03/16 03:17:34;;;;;;;8.85;1.80;;;7.50;77.40;;;;;;5072532;28;20127;-74
2021/03/16 03:19:59;;;;;;;5.95;1.75;;;7.50;77.30;;;;;;5071125;28;20453;-74
2021/03/16 03:22:29;;;;;;;6.80;1.50;;;7.60;77.40;;;;;;5072517;28;20134;-74
2021/03/16 03:25:03;;;;;;;8.05;1.58;;;7.60;77.40;;;;;;5071258;28;20396;-75
2021/03/16 03:27:52;;;;;;;8.35;1.42;;;7.60;77.30;;;;;;5071292;28;20098;-75
2021/03/16 03:30:21;;;;;;;7.35;1.52;;;7.60;77.30;;;;;;5070896;28;20025;-74
2021/03/16 03:32:46;;;;;;;8.63;1.65;;;7.60;77.30;;;;;;5072314;28;20184;-74
2021/03/16 03:35:14;;;;;;;5.28;1.50;;;7.60;77.30;;;;;;5070984;28;20052;-74
2021/03/16 03:37:42;;;;;;;13.13;2.03;;;7.60;77.30;;;;;;5072502;28;20029;-75
2021/03/16 03:40:09;;;;;;;6.13;1.48;;;7.50;77.30;;;;;;5071412;28;20047;-74
2021/03/16 03:42:36;;;;;;;6.70;1.27;;;7.50;77.40;;;;;;5071323;28;20024;-74
2021/03/16 03:45:05;;;;;;;6.72;1.42;;;7.50;77.40;;;;;;5071168;28;20024;-75
2021/03/16 03:47:32;;;;;;;8.55;1.63;;;7.50;77.40;;;;;;5071165;28;20032;-75
2021/03/16 03:49:59;;;;;;;9.57;1.40;;;7.50;77.30;;;;;;5070937;28;20029;-74
2021/03/16 03:52:25;;;;;;;8.32;1.40;;;7.50;77.40;;;;;;5070936;28;20024;-74
2021/03/16 03:54:52;;;;;;;7.40;1.40;;;7.50;77.50;;;;;;5072428;28;20025;-75
2021/03/16 03:57:18;;;;;;;7.40;1.40;;;7.50;77.50;;;;;;5072403;28;20039;-75
2021/03/16 03:59:46;;;;;;;8.73;1.30;;;7.50;77.60;;;;;;5070778;28;20032;-74
2021/03/16 04:02:13;;;;;;;7.97;1.80;;;7.50;77.50;;;;;;5071992;28;20043;-74
2021/03/16 04:04:39;;;;;;;9.20;1.55;;;7.50;77.40;;;;;;5072127;28;20031;-75
2021/03/16 04:07:07;;;;;;;11.20;1.98;;;7.50;77.40;;;;;;5072116;28;20155;-75
2021/03/16 04:09:34;;;;;;;6.95;1.20;;;7.50;77.30;;;;;;5073780;28;20028;-74
2021/03/16 04:12:00;;;;;;;8.32;1.70;;;7.50;77.30;;;;;;5075546;28;20355;-74
2021/03/16 04:14:27;;;;;;;7.32;1.60;;;7.50;77.30;;;;;;5075798;28;20028;-74
2021/03/16 04:16:54;;;;;;;6.68;1.20;;;7.50;77.20;;;;;;5074458;28;20021;-74
2021/03/16 04:19:20;;;;;;;9.10;1.85;;;7.50;77.30;;;;;;5073956;28;20048;-75
2021/03/16 04:21:47;;;;;;;11.00;1.80;;;7.50;77.30;;;;;;5075523;28;20387;-74
2021/03/16 04:24:13;;;;;;;6.95;1.42;;;7.50;77.40;;;;;;5074345;28;20028;-74
2021/03/16 04:26:39;;;;;;;6.97;1.48;;;7.50;77.50;;;;;;5074315;28;20391;-74
2021/03/16 04:29:05;;;;;;;9.43;1.65;;;7.50;77.50;;;;;;5075533;28;20095;-75
2021/03/16 04:31:30;;;;;;;8.85;1.92;;;7.40;77.50;;;;;;5075698;28;20063;-74
2021/03/16 04:33:56;;;;;;;8.43;1.73;;;7.40;77.60;;;;;;5073949;28;20056;-74
2021/03/16 04:36:22;;;;;;;6.53;1.27;;;7.40;77.70;;;;;;5073865;28;20021;-74
2021/03/16 04:38:47;;;;;;;7.82;1.80;;;7.40;77.80;;;;;;5073894;28;20067;-74
2021/03/16 04:41:13;;;;;;;7.63;1.70;;;7.40;77.80;;;;;;5075057;28;20028;-74
2021/03/16 04:43:42;;;;;;;9.48;1.90;;;7.50;78.00;;;;;;5075012;28;20024;-75
2021/03/16 04:46:08;;;;;;;13.38;1.90;;;7.40;78.00;;;;;;5075218;28;20027;-74
2021/03/16 04:48:34;;;;;;;11.02;2.40;;;7.40;78.10;;;;;;5073904;28;20028;-74
2021/03/16 04:51:01;;;;;;;10.35;1.65;;;7.40;78.20;;;;;;5073443;28;20074;-74
2021/03/16 04:53:27;;;;;;;8.98;2.53;;;7.40;78.30;;;;;;5075113;28;20027;-75
2021/03/16 04:55:52;;;;;;;8.48;2.47;;;7.40;78.40;;;;;;5073564;28;20103;-74
2021/03/16 04:58:18;;;;;;;11.13;2.58;;;7.30;78.40;;;;;;5073537;28;20478;-74
2021/03/16 05:00:44;;;;;;;8.75;2.08;;;7.30;78.60;;;;;;5074796;28;20354;-74
2021/03/16 05:03:09;;;;;;;10.60;2.33;;;7.30;78.70;;;;;;5073620;28;20111;-75
2021/03/16 05:05:35;;;;;;;11.93;1.83;;;7.30;78.80;;;;;;5073269;28;20099;-74
2021/03/16 05:08:00;;;;;;;5.22;1.60;;;7.30;78.80;;;;;;5074778;28;20051;-74
2021/03/16 05:10:26;;;;;;;9.48;2.05;;;7.30;78.90;;;;;;5073169;28;20124;-75
2021/03/16 05:12:52;;;;;;;10.23;1.90;;;7.30;78.90;;;;;;5073390;28;20020;-74
2021/03/16 05:15:17;;;;;;;10.68;2.00;;;7.30;78.90;;;;;;5073363;28;20051;-74
2021/03/16 05:17:43;;;;;;;10.75;1.92;;;7.30;79.00;;;;;;5073022;28;20495;-75
2021/03/16 05:20:10;;;;;;;8.32;2.10;;;7.30;79.00;;;;;;5074170;28;20065;-74
2021/03/16 05:22:35;;;;;;;9.65;1.50;;;7.30;79.10;;;;;;5073217;28;20119;-74
2021/03/16 05:25:02;;;;;;;9.13;1.95;;;7.30;79.10;;;;;;5074507;28;20059;-75
2021/03/16 05:27:27;;;;;;;9.57;1.88;;;7.30;79.20;;;;;;5074409;28;20086;-74
2021/03/16 05:29:53;;;;;;;8.75;1.55;;;7.30;79.20;;;;;;5072881;28;20033;-74
2021/03/16 05:32:19;;;;;;;11.43;1.77;;;7.30;79.20;;;;;;5074127;28;20431;-75
2021/03/16 05:34:45;;;;;;;12.93;2.42;;;7.30;79.20;;;;;;5072618;28;20032;-75
2021/03/16 05:37:11;;;;;;;9.20;1.55;;;7.30;79.20;;;;;;5072784;28;20078;-75
2021/03/16 05:39:36;;;;;;;9.30;2.25;;;7.30;79.30;;;;;;5072892;28;20033;-74
2021/03/16 05:42:02;;;;;;;7.60;1.88;;;7.30;79.30;;;;;;5072879;28;20474;-75
2021/03/16 05:44:28;;;;;;;11.85;2.30;;;7.30;79.30;;;;;;5072396;28;20028;-74
2021/03/16 05:46:54;;;;;;;8.73;1.80;;;7.30;79.30;;;;;;5072381;28;20077;-74
2021/03/16 05:49:22;;;;;;;12.70;2.05;;;7.30;79.40;;;;;;5072308;28;20517;-75
2021/03/16 05:51:49;;;;;;;9.60;1.70;;;7.30;79.40;;;;;;5072545;28;20021;-75
2021/03/16 05:54:16;;;;;;;12.68;2.35;;;7.30;80.00;;;;;;5072552;28;20112;-74
2021/03/16 05:56:42;;;;;;;9.93;1.95;;;7.30;79.50;;;;;;5072831;28;20024;-74
2021/03/16 05:59:08;;;;;;;8.90;1.98;;;7.30;79.50;;;;;;5073942;28;20028;-75
2021/03/16 06:01:34;;;;;;;9.60;1.55;;;7.30;79.60;;;;;;5072442;28;20476;-74
2021/03/16 06:04:01;;;;;;;12.63;2.33;;;7.30;79.60;;;;;;5073520;28;20033;-74
2021/03/16 06:06:30;;;;;;;9.95;1.88;;;7.30;79.70;;;;;;5072158;28;20035;-74
2021/03/16 06:08:56;;;;;;;11.02;1.75;;;7.30;79.70;;;;;;5073404;28;20029;-74
2021/03/16 06:11:22;;;;;;;9.30;1.70;;;7.40;79.80;;;;;;5072091;28;20502;-75
2021/03/16 06:13:55;;;;;;;12.77;2.28;;;7.40;79.80;;;;;;5073516;28;20491;-75
2021/03/16 06:16:23;;;;;;;5.97;1.38;;;7.40;79.70;;;;;;5073476;28;20024;-75
2021/03/16 06:18:49;;;;;;;9.38;1.70;;;7.50;79.70;;;;;;5072009;28;20078;-74
2021/03/16 06:21:20;;;;;;;12.05;1.88;;;7.50;79.70;;;;;;5072054;28;20120;-74
2021/03/16 06:23:54;;;;;;;8.32;1.83;;;7.50;79.70;;;;;;5072381;28;20070;-74
2021/03/16 06:26:23;;;;;;;6.65;1.60;;;7.60;79.70;;;;;;5073674;28;20055;-74
2021/03/16 06:28:50;;;;;;;10.52;2.38;;;7.60;79.60;;;;;;5071833;28;20033;-74
2021/03/16 06:31:23;;;;;;;12.18;1.92;;;7.60;79.70;;;;;;5071632;28;20090;-75
2021/03/16 06:33:49;;;;;;;8.95;1.80;;;7.60;80.30;;;;;;5073092;28;20024;-75
2021/03/16 06:36:15;;;;;;;9.32;1.40;;;7.70;79.70;;;;;;5071644;28;20055;-74
2021/03/16 06:38:41;;;;;;;12.23;2.10;;;7.70;79.60;;;;;;5071742;28;20456;-75
2021/03/16 06:41:19;;;;;;;13.32;1.65;;;7.70;79.60;;;;;;5073018;28;20029;-74
2021/03/16 06:43:57;;;;;;;14.27;2.13;;;7.70;79.60;;;;;;5071384;28;20480;-74
2021/03/16 06:46:41;;;;;;;10.13;2.03;;;7.80;79.70;;;;;;5071537;28;20099;-74
2021/03/16 06:49:13;;;;;;;;;;;7.80;79.60;;;;;;5073044;28;20028;-74
2021/03/16 06:51:39;;;;;;;11.02;1.83;;;7.80;79.70;;;;;;5071754;28;19915;-74
2021/03/16 06:54:27;;;;;;;8.88;1.70;;;7.80;79.60;;;;;;5072560;28;20036;-75
2021/03/16 06:57:00;;;;;;;9.57;1.80;;;7.80;79.90;;;;;;5072278;28;20040;-75
2021/03/16 06:59:30;;;;;;;8.05;2.05;;;7.80;80.00;;;;;;5072517;28;20036;-74
2021/03/16 07:01:57;;;;;;;8.65;1.70;;;7.80;80.00;;;;;;5072602;28;20041;-74
2021/03/16 07:04:24;;;;;;;12.95;1.85;;;7.80;80.00;;;;;;5072562;28;20033;-74
2021/03/16 07:06:51;;;;;;;9.95;2.03;;;7.80;80.00;;;;;;5071266;28;20515;-74
2021/03/16 07:09:18;;;;;;;8.30;1.95;;;7.80;80.10;;;;;;5072446;28;20031;-74
2021/03/16 07:11:48;;;;;;;9.65;1.52;;;7.80;80.30;;;;;;5071401;28;20029;-75
2021/03/16 07:14:15;;;;;;;8.32;1.63;;;7.80;80.30;;;;;;5071386;28;20024;-74
2021/03/16 07:16:43;;;;;;;10.10;1.70;;;7.90;80.30;;;;;;5073022;28;20361;-75
2021/03/16 07:19:09;;;;;;;6.82;1.35;;;7.90;80.50;;;;;;5072954;28;20488;-75
2021/03/16 07:21:54;;;;;;;10.07;1.70;;;8.00;80.60;;;;;;5072690;28;20384;-75
2021/03/16 07:24:27;;;;;;;10.90;1.88;;;8.00;80.40;;;;;;5072818;28;20534;-74
2021/03/16 07:26:55;;;;;;;12.93;1.63;;;8.00;80.30;;;;;;5073057;28;20035;-74
2021/03/16 07:29:21;;;;;;;9.73;2.15;;;8.10;80.40;;;;;;5071364;28;20040;-74
2021/03/16 07:31:49;;;;;;;8.23;2.00;;;8.20;80.30;;;;;;5071436;28;20024;-74
2021/03/16 07:34:19;;;;;;;8.18;1.73;;;8.20;80.10;;;;;;5071355;28;20021;-74
2021/03/16 07:36:47;;;;;;;11.18;2.20;;;8.20;79.90;;;;;;5072935;28;20025;-74
2021/03/16 07:39:18;;;;;;;12.88;1.85;;;8.20;79.80;;;;;;5072527;28;20500;-74
2021/03/16 07:41:44;;;;;;;12.52;2.20;;;8.20;79.70;;;;;;5071136;28;20475;-74
2021/03/16 07:44:12;;;;;;;8.90;1.70;;;8.20;79.70;;;;;;5072239;28;20043;-73
2021/03/16 07:47:02;;;;;;;9.82;2.00;;;8.30;79.50;;;;;;5074863;28;20032;-73
2021/03/16 07:49:32;;;;;;;6.72;1.52;;;8.30;79.40;;;;;;5075914;28;20028;-74
2021/03/16 07:51:59;;;;;;;8.25;1.55;;;8.30;79.40;;;;;;5074727;28;20035;-74
2021/03/16 07:54:36;;;;;;;8.65;1.50;;;8.40;79.40;;;;;;5074649;28;20031;-73
2021/03/16 07:57:04;;;;;;;11.80;2.10;;;8.40;79.30;;;;;;5075168;28;20020;-75
2021/03/16 07:59:32;;;;;;;9.18;1.98;;;8.50;79.30;;;;;;5075738;28;20117;-74
2021/03/16 08:01:57;;;;;;;8.15;1.83;;;8.60;78.90;;;;;;5074462;28;20094;-74
2021/03/16 08:04:41;;;;;;;8.18;1.73;;;8.50;78.70;;;;;;5075709;28;20048;-74
2021/03/16 08:07:08;;;;;;;;;;;8.60;78.60;;;;;;5074737;28;20115;-74
2021/03/16 08:09:51;;;;;;;7.28;2.00;;;8.60;78.30;;;;;;5075509;28;19912;-74
2021/03/16 08:12:23;;;;;;;;;;;8.60;78.20;;;;;;5076238;28;20032;-74
2021/03/16 08:14:48;;;;;;;9.35;1.83;;;8.50;78.10;;;;;;5074446;28;19909;-74
2021/03/16 08:17:35;;;;;;;10.95;2.38;;;8.50;77.90;;;;;;5075531;28;20441;-74
2021/03/16 08:20:03;;;;;;;8.60;1.70;;;8.50;77.00;;;;;;5074103;28;20500;-74
2021/03/16 08:22:29;;;;;;;10.32;2.28;;;8.50;77.00;;;;;;5075569;28;20040;-74
2021/03/16 08:25:05;;;;;;;8.32;1.98;;;8.50;77.20;;;;;;5073970;28;20079;-73
2021/03/16 08:27:33;;;;;;;6.00;1.20;;;8.50;77.40;;;;;;5073983;28;20372;-73
2021/03/16 08:29:59;;;;;;;10.30;1.83;;;8.50;77.40;;;;;;5073802;28;20032;-74
2021/03/16 08:32:25;;;;;;;5.53;1.38;;;8.50;77.30;;;;;;5073924;28;20420;-73
2021/03/16 08:34:51;;;;;;;8.43;1.88;;;8.50;77.20;;;;;;5074839;28;20063;-74
2021/03/16 08:37:31;;;;;;;8.80;1.40;;;8.60;77.40;;;;;;5073869;28;20017;-74
2021/03/16 08:39:57;;;;;;;10.80;1.80;;;8.60;77.30;;;;;;5075222;28;20088;-74
2021/03/16 08:42:25;;;;;;;7.05;1.60;;;8.70;76.30;;;;;;5073605;28;20503;-74
2021/03/16 08:44:51;;;;;;;7.80;1.60;;;8.70;76.60;;;;;;5075119;28;20492;-74
2021/03/16 08:47:19;;;;;;;11.15;1.73;;;8.80;76.70;;;;;;5074906;28;20028;-74
2021/03/16 08:49:47;;;;;;;8.85;1.60;;;8.80;76.70;;;;;;5073388;28;20057;-74
2021/03/16 08:52:21;;;;;;;10.35;1.90;;;9.00;76.50;;;;;;5074872;28;20071;-74
2021/03/16 08:54:49;;;;;;;8.32;2.00;;;9.00;75.50;;;;;;5072886;28;20024;-74
2021/03/16 08:57:35;;;;;;;9.10;1.80;;;8.90;75.40;;;;;;5074152;28;20462;-74
2021/03/16 09:00:03;;;;;;;12.70;2.10;;;9.00;75.50;;;;;;5074690;28;20052;-74
2021/03/16 09:02:38;;;;;;;8.23;1.77;;;8.90;75.20;;;;;;5073310;28;20048;-74
2021/03/16 09:05:05;;;;;;;14.75;2.08;;;9.00;75.40;;;;;;5073358;28;20051;-74
2021/03/16 09:07:33;;;;;;;5.47;1.50;;;9.10;75.30;;;;;;5073101;28;20032;-74
2021/03/16 09:10:17;;;;;;;7.13;1.90;;;9.10;74.80;;;;;;5072941;28;20067;-74
2021/03/16 09:12:45;;;;;;;9.80;1.98;;;9.20;73.80;;;;;;5073079;28;20060;-74
2021/03/16 09:15:12;;;;;;;7.28;1.73;;;9.10;73.90;;;;;;5073281;28;20063;-74
2021/03/16 09:17:39;;;;;;;9.18;2.22;;;9.10;73.60;;;;;;5074440;28;20039;-74
2021/03/16 09:20:09;;;;;;;6.50;1.65;;;9.10;73.70;;;;;;5072840;28;20123;-74
2021/03/16 09:22:35;;;;;;;9.70;1.83;;;9.20;73.50;;;;;;5074462;28;20033;-74
2021/03/16 09:25:01;;;;;;;6.50;1.60;;;9.20;73.50;;;;;;5074136;28;20043;-74
2021/03/16 09:27:26;;;;;;;7.40;1.67;;;9.30;73.50;;;;;;5074178;28;20024;-74
2021/03/16 09:29:52;;;;;;;7.50;1.45;;;9.40;72.80;;;;;;5072661;28;20579;-74
2021/03/16 09:32:19;;;;;;;8.43;2.15;;;9.40;72.70;;;;;;5072774;28;20123;-74
2021/03/16 09:34:46;;;;;;;8.20;1.70;;;9.40;72.30;;;;;;5072911;28;20058;-74
2021/03/16 09:37:14;;;;;;;10.40;1.98;;;9.40;71.60;;;;;;5072897;28;20426;-74
2021/03/16 09:39:52;;;;;;;7.07;1.60;;;9.40;72.30;;;;;;5072584;28;20103;-74
2021/03/16 09:42:17;;;;;;;12.60;1.67;;;9.40;72.20;;;;;;5072763;28;20028;-74
2021/03/16 09:44:45;;;;;;;8.07;1.95;;;9.40;72.50;;;;;;5073942;28;20089;-74
2021/03/16 09:47:11;;;;;;;9.70;1.83;;;9.40;71.40;;;;;;5073853;28;20108;-73
2021/03/16 09:49:40;;;;;;;6.13;1.38;;;9.30;71.70;;;;;;5072388;28;20116;-74
2021/03/16 09:52:12;;;;;;;7.57;1.45;;;9.40;71.80;;;;;;5073611;28;20039;-74
2021/03/16 09:54:44;;;;;;;9.27;1.63;;;9.30;72.00;;;;;;5072389;28;20107;-74
2021/03/16 09:57:15;;;;;;;3.37;1.23;;;9.40;72.30;;;;;;5072361;28;20021;-74
2021/03/16 09:59:44;;;;;;;9.13;1.58;;;9.40;72.30;;;;;;5073497;28;20037;-74
2021/03/16 10:02:10;;;;;;;7.43;1.70;;;9.40;72.30;;;;;;5072058;28;20025;-74
2021/03/16 10:04:47;;;;;;;6.25;1.50;;;9.40;72.30;;;;;;5073504;28;20058;-74
2021/03/16 10:07:27;;;;;;;7.05;1.52;;;9.40;71.80;;;;;;5072814;28;20113;-74
2021/03/16 10:09:53;;;;;;;7.00;1.83;;;9.40;70.60;;;;;;5073157;28;20368;-73
2021/03/16 10:12:21;;;;;;;6.38;1.58;;;9.50;71.10;;;;;;5071980;28;20028;-73
2021/03/16 10:14:51;;;;;;;6.82;1.40;;;9.50;70.60;;;;;;5069405;28;20111;-74
2021/03/16 10:17:28;;;;;;;5.40;1.25;;;9.50;70.40;;;;;;5072157;28;20028;-74
2021/03/16 10:19:55;;;;;;;6.25;1.40;;;9.60;70.50;;;;;;5073192;28;20090;-74
2021/03/16 10:22:30;;;;;;;8.18;1.88;;;9.60;69.80;;;;;;5071914;28;20032;-74
2021/03/16 10:24:58;;;;;;;9.48;1.95;;;9.70;70.40;;;;;;5072187;28;20119;-74
2021/03/16 10:27:33;;;;;;;7.68;1.63;;;9.80;70.20;;;;;;5073355;28;20028;-74
2021/03/16 10:30:10;;;;;;;12.13;1.70;;;9.80;69.90;;;;;;5071730;28;20486;-74
2021/03/16 10:32:38;;;;;;;7.70;1.80;;;9.80;69.10;;;;;;5071746;28;20026;-74
2021/03/16 10:35:04;;;;;;;10.32;1.63;;;9.80;68.90;;;;;;5071867;28;20107;-74
2021/03/16 10:37:30;;;;;;;3.65;1.30;;;9.80;68.70;;;;;;5071910;28;20029;-74
2021/03/16 10:39:59;;;;;;;7.07;1.50;;;9.80;69.20;;;;;;5073265;28;20089;-74
2021/03/16 10:42:25;;;;;;;11.18;1.77;;;9.90;68.70;;;;;;5072923;28;20078;-74
2021/03/16 10:44:51;;;;;;;9.02;1.40;;;9.90;68.00;;;;;;5071549;28;20097;-73
2021/03/16 10:47:16;;;;;;;6.22;1.63;;;9.90;68.30;;;;;;5071688;28;20032;-73
2021/03/16 10:49:42;;;;;;;4.72;1.40;;;9.90;68.50;;;;;;5071471;28;20025;-73
2021/03/16 10:52:08;;;;;;;5.15;1.50;;;10.00;67.00;;;;;;5071460;28;20492;-74
2021/03/16 10:54:35;;;;;;;7.13;1.90;;;10.00;67.70;;;;;;5071492;28;20021;-73
2021/03/16 10:57:02;;;;;;;7.20;1.55;;;10.00;67.60;;;;;;5072893;28;20025;-74
2021/03/16 10:59:27;;;;;;;5.03;1.40;;;10.10;67.50;;;;;;5072904;28;20064;-73
2021/03/16 11:01:53;;;;;;;8.40;1.52;;;10.10;66.90;;;;;;5073070;28;20392;-73
2021/03/16 11:04:19;;;;;;;4.20;1.25;;;10.10;66.30;;;;;;5071545;28;20582;-74
2021/03/16 11:06:46;;;;;;;9.38;1.70;;;10.20;66.80;;;;;;5071520;28;20036;-74
2021/03/16 11:09:13;;;;;;;7.70;1.30;;;10.20;65.60;;;;;;5071384;28;20081;-73
2021/03/16 11:11:39;;;;;;;6.13;1.52;;;10.20;66.10;;;;;;5071294;28;20021;-73
2021/03/16 11:14:05;;;;;;;7.43;1.52;;;10.40;65.70;;;;;;5072652;28;20028;-73
2021/03/16 11:16:31;;;;;;;6.53;1.30;;;10.40;65.80;;;;;;5072622;28;20377;-73
2021/03/16 11:18:57;;;;;;;7.72;1.60;;;10.50;64.70;;;;;;5075012;28;20049;-74
2021/03/16 11:21:22;;;;;;;2.53;1.00;;;10.40;64.80;;;;;;5075420;28;20119;-73
2021/03/16 11:23:48;;;;;;;6.63;1.63;;;10.40;64.70;;;;;;5075550;28;20468;-74
2021/03/16 11:26:14;;;;;;;10.32;3.88;;;10.50;64.60;;;;;;5075762;28;20028;-75
2021/03/16 11:28:39;;;;;;;8.60;2.80;;;10.40;64.60;;;;;;5075375;28;20031;-74
2021/03/16 11:31:05;;;;;;;9.25;3.10;;;10.50;65.00;;;;;;5075413;28;20048;-74
2021/03/16 11:33:31;;;;;;;4.30;1.75;;;10.50;65.00;;;;;;5076717;28;20024;-74
2021/03/16 11:35:57;;;;;;;5.70;1.48;;;10.50;64.80;;;;;;5075308;28;20070;-74
2021/03/16 11:38:23;;;;;;;6.82;1.65;;;10.60;64.60;;;;;;5076584;28;20436;-74
2021/03/16 11:40:49;;;;;;;8.57;1.83;;;10.60;65.00;;;;;;5075120;28;20059;-74
2021/03/16 11:43:15;;;;;;;6.03;1.60;;;10.70;63.80;;;;;;5076376;28;20365;-74
2021/03/16 11:45:42;;;;;;;8.85;1.67;;;10.70;64.00;;;;;;5075129;28;20036;-74
2021/03/16 11:48:09;;;;;;;8.32;2.00;;;10.70;63.20;;;;;;5076347;28;20067;-74
2021/03/16 11:50:34;;;;;;;7.72;1.38;;;10.70;62.70;;;;;;5076406;28;20105;-74
2021/03/16 11:53:00;;;;;;;4.25;1.10;;;10.70;62.50;;;;;;5076079;28;20495;-73
2021/03/16 11:55:26;;;;;;;5.22;1.20;;;10.70;63.00;;;;;;5075976;28;20472;-73
2021/03/16 11:57:51;;;;;;;8.15;1.65;;;10.70;63.00;;;;;;5076073;28;20021;-73
2021/03/16 12:00:17;;;;;;;9.55;1.88;;;10.70;62.70;;;;;;5075821;28;20032;-73
2021/03/16 12:02:43;;;;;;;9.75;1.70;;;10.50;63.10;;;;;;5074471;28;20491;-73
2021/03/16 12:05:09;;;;;;;5.28;1.30;;;10.40;63.70;;;;;;5074487;28;20021;-73
2021/03/16 12:07:35;;;;;;;8.68;1.30;;;10.40;64.10;;;;;;5075868;28;20040;-73
2021/03/16 12:10:01;;;;;;;11.25;1.95;;;10.40;64.30;;;;;;5074101;28;20028;-74
2021/03/16 12:12:27;;;;;;;6.88;1.63;;;10.40;63.90;;;;;;5076040;28;20064;-73
2021/03/16 12:14:52;;;;;;;11.00;1.85;;;10.40;64.00;;;;;;5074358;28;20048;-72
2021/03/16 12:17:18;;;;;;;8.45;1.83;;;10.40;63.60;;;;;;5074402;28;20365;-73
2021/03/16 12:19:43;;;;;;;4.88;1.63;;;10.40;63.60;;;;;;5075562;28;20117;-74
2021/03/16 12:22:09;;;;;;;7.22;1.42;;;10.40;63.90;;;;;;5076365;28;20037;-74
2021/03/16 12:24:35;;;;;;;6.55;1.85;;;10.40;63.80;;;;;;5075789;28;20033;-74
2021/03/16 12:27:02;;;;;;;7.35;1.48;;;10.50;63.50;;;;;;5074397;28;20036;-74
2021/03/16 12:29:28;;;;;;;7.95;1.55;;;10.50;63.70;;;;;;5074906;28;20035;-75
2021/03/16 12:31:53;;;;;;;5.25;1.30;;;10.50;63.80;;;;;;5075826;28;20031;-74
2021/03/16 12:34:19;;;;;;;5.47;1.30;;;10.60;63.10;;;;;;5075761;28;20025;-74
2021/03/16 12:36:45;;;;;;;8.13;2.10;;;10.60;62.80;;;;;;5073861;28;20477;-74
2021/03/16 12:39:10;;;;;;;6.25;1.60;;;10.60;62.60;;;;;;5075288;28;20442;-74
2021/03/16 12:41:36;;;;;;;6.30;1.40;;;10.70;62.80;;;;;;5075139;28;20108;-74
2021/03/16 12:44:02;;;;;;;2.22;0.98;;;10.80;62.40;;;;;;5073695;28;20090;-74
2021/03/16 12:46:28;;;;;;;5.13;1.10;;;10.90;62.60;;;;;;5073917;28;20036;-74
2021/03/16 12:48:55;;;;;;;3.33;1.10;;;11.00;62.50;;;;;;5073606;28;20062;-74
2021/03/16 12:51:20;;;;;;;7.78;1.50;;;11.10;62.40;;;;;;5073993;28;20102;-74
2021/03/16 12:53:46;;;;;;;5.55;1.17;;;11.20;62.30;;;;;;5074915;28;20024;-74
2021/03/16 12:56:13;;;;;;;6.57;1.15;;;11.30;62.00;;;;;;5074938;28;20024;-74
2021/03/16 12:58:39;;;;;;;8.65;3.80;;;11.40;61.40;;;;;;5075105;28;20468;-75